createdAt,value
2018-06-02T00:02:03.355Z,4.00
2018-06-02T00:04:32.425Z,4.20
2018-06-02T00:07:01.482Z,4.17
2018-06-02T00:09:30.527Z,4.17
2018-06-02T00:11:59.569Z,3.60
2018-06-02T00:14:28.623Z,4.83
2018-06-02T00:16:57.657Z,4.57
2018-06-02T00:19:26.705Z,3.20
2018-06-02T00:24:31.963Z,3.90
2018-06-02T00:29:36.835Z,3.17
2018-06-02T00:32:05.877Z,5.00
2018-06-02T00:34:34.966Z,3.30
2018-06-02T00:37:04.018Z,5.17
2018-06-02T00:39:33.076Z,4.70
2018-06-02T00:42:02.131Z,4.30
2018-06-02T00:44:31.182Z,3.87
2018-06-02T00:47:00.222Z,3.03
2018-06-02T00:49:38.825Z,4.00
2018-06-02T00:52:20.625Z,3.70
2018-06-02T00:57:30.053Z,5.43
2018-06-02T01:00:13.274Z,5.43
2018-06-02T01:02:55.364Z,4.10
2018-06-02T01:08:17.151Z,5.15
2018-06-02T01:11:02.657Z,4.57
2018-06-02T01:13:46.593Z,4.60
2018-06-02T01:16:30.072Z,4.03
2018-06-02T01:19:13.965Z,4.23
2018-06-02T01:21:56.232Z,5.23
2018-06-02T01:24:39.858Z,6.90
2018-06-02T01:30:03.154Z,5.55
2018-06-02T01:32:45.189Z,5.27
2018-06-02T01:35:27.243Z,5.30
2018-06-02T01:37:56.901Z,6.10
2018-06-02T01:43:01.674Z,5.60
2018-06-02T01:45:30.714Z,6.67
2018-06-02T01:47:59.758Z,5.10
2018-06-02T01:50:28.795Z,5.00
2018-06-02T01:52:57.844Z,4.40
2018-06-02T01:58:02.609Z,6.20
2018-06-02T02:00:31.685Z,7.00
2018-06-02T02:03:00.736Z,6.10
2018-06-02T02:08:05.607Z,6.63
2018-06-02T02:16:45.111Z,7.70
2018-06-02T02:19:14.162Z,7.70
2018-06-02T02:21:43.216Z,5.83
2018-06-02T02:24:12.278Z,6.37
2018-06-02T02:26:41.343Z,6.62
2018-06-02T02:29:10.394Z,7.77
2018-06-02T02:31:39.443Z,6.10
2018-06-02T02:34:08.485Z,5.90
2018-06-02T02:36:37.577Z,5.20
2018-06-02T02:39:06.619Z,6.10
2018-06-02T02:41:35.691Z,6.53
2018-06-02T02:44:04.752Z,6.77
2018-06-02T02:46:33.812Z,7.20
2018-06-02T02:49:02.874Z,5.17
2018-06-02T02:51:31.947Z,6.23
2018-06-02T02:54:01.002Z,6.47
2018-06-02T02:56:30.037Z,6.47
2018-06-02T02:58:59.089Z,6.83
2018-06-02T03:01:28.136Z,7.40
2018-06-02T03:03:57.233Z,6.43
2018-06-02T03:06:26.285Z,7.87
2018-06-02T03:08:55.334Z,7.90
2018-06-02T03:11:24.382Z,6.60
2018-06-02T03:13:53.534Z,6.50
2018-06-02T03:16:22.593Z,6.43
2018-06-02T03:18:51.657Z,7.47
2018-06-02T03:21:20.726Z,7.87
2018-06-02T03:23:49.787Z,8.03
2018-06-02T03:26:18.813Z,7.37
2018-06-02T03:28:47.872Z,9.20
2018-06-02T03:31:16.929Z,8.00
2018-06-02T03:33:45.984Z,7.90
2018-06-02T03:36:15.045Z,9.50
2018-06-02T03:38:44.090Z,8.00
2018-06-02T03:43:48.868Z,7.83
2018-06-02T03:46:17.918Z,7.90
2018-06-02T03:48:47.383Z,7.82
2018-06-02T03:51:16.505Z,10.13
2018-06-02T03:53:45.801Z,30.37
2018-06-02T03:56:14.857Z,43.10
2018-06-02T03:58:43.915Z,28.87
2018-06-02T04:03:48.696Z,14.07
2018-06-02T04:06:19.342Z,12.77
2018-06-02T04:08:48.404Z,10.87
2018-06-02T04:11:17.686Z,9.33
2018-06-02T04:13:46.970Z,8.32
2018-06-02T04:16:16.058Z,8.35
2018-06-02T04:18:46.851Z,7.50
2018-06-02T04:21:15.881Z,7.63
2018-06-02T04:23:46.165Z,6.83
2018-06-02T04:28:51.974Z,7.47
2018-06-02T04:31:21.043Z,8.30
2018-06-02T04:36:25.843Z,7.97
2018-06-02T04:38:55.025Z,5.90
2018-06-02T04:41:24.074Z,7.17
2018-06-02T04:43:53.123Z,10.47
2018-06-02T04:46:23.108Z,6.17
2018-06-02T04:48:52.128Z,9.00
2018-06-02T04:51:21.179Z,7.00
2018-06-02T04:53:50.221Z,7.50
2018-06-02T04:56:19.273Z,6.90
2018-06-02T04:58:49.102Z,7.73
2018-06-02T05:01:18.125Z,7.70
2018-06-02T05:03:48.950Z,7.40
2018-06-02T05:06:18.044Z,7.40
2018-06-02T05:08:47.549Z,8.07
2018-06-02T05:11:16.582Z,8.80
2018-06-02T05:13:46.524Z,6.87
2018-06-02T05:16:15.963Z,8.33
2018-06-02T05:18:45.898Z,7.00
2018-06-02T05:21:16.181Z,9.20
2018-06-02T05:23:46.433Z,7.43
2018-06-02T05:26:15.449Z,7.70
2018-06-02T05:28:46.061Z,7.23
2018-06-02T05:31:15.125Z,6.60
2018-06-02T05:33:46.426Z,6.63
2018-06-02T05:36:15.487Z,7.17
2018-06-02T05:38:47.308Z,6.80
2018-06-02T05:43:52.177Z,7.43
2018-06-02T05:46:21.271Z,6.70
2018-06-02T05:48:50.327Z,6.33
2018-06-02T05:51:19.623Z,7.40
2018-06-02T05:53:48.666Z,7.00
2018-06-02T05:56:17.739Z,6.80
2018-06-02T05:58:46.831Z,7.10
2018-06-02T06:01:15.877Z,5.63
2018-06-02T06:03:46.106Z,6.53
2018-06-02T06:06:15.197Z,6.90
2018-06-02T06:08:46.000Z,7.10
2018-06-02T06:11:16.132Z,6.50
2018-06-02T06:13:47.258Z,6.20
2018-06-02T06:16:16.401Z,5.83
2018-06-02T06:18:46.729Z,5.60
2018-06-02T06:21:15.801Z,5.97
2018-06-02T06:26:20.617Z,5.12
2018-06-02T06:28:50.464Z,5.70
2018-06-02T06:31:19.486Z,8.33
2018-06-02T06:33:48.808Z,5.87
2018-06-02T06:41:29.510Z,5.10
2018-06-02T06:46:34.610Z,4.90
2018-06-02T06:49:03.637Z,4.83
2018-06-02T06:51:32.778Z,5.80
2018-06-02T06:54:01.854Z,5.90
2018-06-02T06:56:31.074Z,5.13
2018-06-02T06:59:00.136Z,6.90
2018-06-02T07:01:29.900Z,4.27
2018-06-02T07:04:03.249Z,3.60
2018-06-02T07:06:33.163Z,3.53
2018-06-02T07:09:02.236Z,4.05
2018-06-02T07:11:33.412Z,3.70
2018-06-02T07:14:02.718Z,3.30
2018-06-02T07:16:32.585Z,3.50
2018-06-02T07:19:01.636Z,3.50
2018-06-02T07:21:31.188Z,3.60
2018-06-02T07:26:36.035Z,2.90
2018-06-02T07:29:07.538Z,3.55
2018-06-02T07:31:36.573Z,3.30
2018-06-02T07:34:05.902Z,4.20
2018-06-02T07:36:34.974Z,4.03
2018-06-02T07:39:05.158Z,3.80
2018-06-02T07:41:34.201Z,4.10
2018-06-02T07:44:03.258Z,3.80
2018-06-02T07:46:32.801Z,4.30
2018-06-02T07:49:01.834Z,3.70
2018-06-02T07:51:31.522Z,4.63
2018-06-02T07:54:00.561Z,4.13
2018-06-02T07:56:29.682Z,3.73
2018-06-02T07:58:58.727Z,4.07
2018-06-02T08:01:27.771Z,3.77
2018-06-02T08:06:32.702Z,4.23
2018-06-02T08:09:02.402Z,3.50
2018-06-02T08:11:31.426Z,3.60
2018-06-02T08:14:01.493Z,2.90
2018-06-02T08:16:30.534Z,2.70
2018-06-02T08:19:00.090Z,2.43
2018-06-02T08:21:29.125Z,3.05
2018-06-02T08:23:58.829Z,2.10
2018-06-02T08:26:27.878Z,2.10
2018-06-02T08:31:32.893Z,2.20
2018-06-02T08:34:01.942Z,2.55
2018-06-02T08:36:31.376Z,3.20
2018-06-02T08:41:36.681Z,3.10
2018-06-02T08:44:05.745Z,2.57
2018-06-02T08:46:35.018Z,3.03
2018-06-02T08:49:04.094Z,2.97
2018-06-02T08:51:33.133Z,2.20
2018-06-02T08:54:02.174Z,4.33
2018-06-02T08:56:32.743Z,3.20
2018-06-02T08:59:01.786Z,3.07
2018-06-02T09:01:31.614Z,3.23
2018-06-02T09:04:00.662Z,4.35
2018-06-02T09:06:29.739Z,3.27
2018-06-02T09:08:59.558Z,3.93
2018-06-02T09:11:28.616Z,5.20
2018-06-02T09:13:57.683Z,5.10
2018-06-02T09:16:26.732Z,5.67
2018-06-02T09:18:55.838Z,3.60
2018-06-02T09:21:25.120Z,3.87
2018-06-02T09:23:54.598Z,3.70
2018-06-02T09:26:23.645Z,3.63
2018-06-02T09:28:53.435Z,3.40
2018-06-02T09:31:22.466Z,3.20
2018-06-02T09:36:27.974Z,2.90
2018-06-02T09:38:57.022Z,2.80
2018-06-02T09:41:26.809Z,3.03
2018-06-02T09:46:31.568Z,3.15
2018-06-02T09:49:00.607Z,4.07
2018-06-02T09:51:29.650Z,2.40
2018-06-02T09:53:58.905Z,2.67
2018-06-02T09:56:27.976Z,3.20
2018-06-02T10:01:33.222Z,2.60
2018-06-02T10:04:02.270Z,2.80
2018-06-02T10:06:31.341Z,4.43
2018-06-02T10:09:00.482Z,2.40
2018-06-02T10:11:29.956Z,2.50
2018-06-02T10:13:58.997Z,2.90
2018-06-02T10:16:28.743Z,2.63
2018-06-02T10:21:33.498Z,4.57
2018-06-02T10:24:02.729Z,3.08
2018-06-02T10:26:31.786Z,3.10
2018-06-02T10:29:01.049Z,2.90
2018-06-02T10:31:30.081Z,2.27
2018-06-02T10:34:00.074Z,3.17
2018-06-02T10:36:29.134Z,2.43
2018-06-02T10:38:58.595Z,2.40
2018-06-02T10:41:27.663Z,2.60
2018-06-02T10:46:32.489Z,4.70
2018-06-02T10:51:38.202Z,3.20
2018-06-02T10:54:07.247Z,3.20
2018-06-02T10:56:37.135Z,2.77
2018-06-02T10:59:06.323Z,3.10
2018-06-02T11:01:35.751Z,2.47
2018-06-02T11:04:04.761Z,2.87
2018-06-02T11:06:34.122Z,3.10
2018-06-02T11:09:06.292Z,2.73
2018-06-02T11:11:35.493Z,3.20
2018-06-02T11:14:04.543Z,2.43
2018-06-02T11:16:33.590Z,3.17
2018-06-02T11:19:02.644Z,2.30
2018-06-02T11:21:31.682Z,2.10
2018-06-02T11:24:00.732Z,2.40
2018-06-02T11:26:29.788Z,1.87
2018-06-02T11:28:59.509Z,2.90
2018-06-02T11:31:28.537Z,2.20
2018-06-02T11:33:58.629Z,2.50
2018-06-02T11:36:27.665Z,4.60
2018-06-02T11:38:56.999Z,2.20
2018-06-02T11:41:26.522Z,2.97
2018-06-02T11:43:55.563Z,2.97
2018-06-02T11:46:24.612Z,3.80
2018-06-02T11:48:53.674Z,2.83
2018-06-02T11:51:22.714Z,3.90
2018-06-02T11:53:51.796Z,2.40
2018-06-02T11:56:20.845Z,2.60
2018-06-02T11:58:56.762Z,2.23
2018-06-02T12:01:34.637Z,2.27
2018-06-02T12:06:52.184Z,3.10
2018-06-02T12:09:29.784Z,3.07
2018-06-02T12:12:08.620Z,3.13
2018-06-02T12:17:24.341Z,2.60
2018-06-02T12:19:53.884Z,2.60
2018-06-02T12:22:24.128Z,2.67
2018-06-02T12:24:53.154Z,3.97
2018-06-02T12:27:22.757Z,2.90
2018-06-02T12:29:51.848Z,2.33
2018-06-02T12:32:21.415Z,3.37
2018-06-02T12:34:50.498Z,2.97
2018-06-02T12:37:20.212Z,2.40
2018-06-02T12:39:49.271Z,2.30
2018-06-02T12:42:18.861Z,3.17
2018-06-02T12:44:47.884Z,2.50
2018-06-02T12:47:17.233Z,2.20
2018-06-02T12:49:46.311Z,2.50
2018-06-02T12:52:15.494Z,2.10
2018-06-02T12:54:44.572Z,1.90
2018-06-02T12:57:13.640Z,2.00
2018-06-02T12:59:42.672Z,3.20
2018-06-02T13:02:11.734Z,3.00
2018-06-02T13:04:40.785Z,2.00
2018-06-02T13:07:09.833Z,1.73
2018-06-02T13:09:39.241Z,2.77
2018-06-02T13:14:44.214Z,2.00
2018-06-02T13:17:14.101Z,2.80
2018-06-02T13:19:43.156Z,1.70
2018-06-02T13:22:12.769Z,2.00
2018-06-02T13:24:41.816Z,2.10
2018-06-02T13:27:11.462Z,1.60
2018-06-02T13:29:40.537Z,1.57
2018-06-02T13:32:09.569Z,2.43
2018-06-02T13:34:38.629Z,2.40
2018-06-02T13:37:07.689Z,1.80
2018-06-02T13:39:36.737Z,2.90
2018-06-02T13:42:05.779Z,1.95
2018-06-02T13:44:35.097Z,2.80
2018-06-02T13:47:04.217Z,2.97
2018-06-02T13:49:33.731Z,1.83
2018-06-02T13:52:02.802Z,2.20
2018-06-02T13:54:35.730Z,1.73
2018-06-02T13:57:08.600Z,3.17
2018-06-02T13:59:41.722Z,1.77
2018-06-02T14:02:14.566Z,1.80
2018-06-02T14:04:47.342Z,1.40
2018-06-02T14:07:20.336Z,2.50
2018-06-02T14:09:53.612Z,3.13
2018-06-02T14:12:25.907Z,2.57
2018-06-02T14:17:34.246Z,2.30
2018-06-02T14:20:07.529Z,4.07
2018-06-02T14:22:40.624Z,3.20
2018-06-02T14:27:53.063Z,2.47
2018-06-02T14:30:26.343Z,2.00
2018-06-02T14:32:59.546Z,1.67
2018-06-02T14:35:32.054Z,2.87
2018-06-02T14:38:05.391Z,2.07
2018-06-02T14:40:38.450Z,8.57
2018-06-02T14:43:10.643Z,3.90
2018-06-02T14:45:43.616Z,2.73
2018-06-02T14:53:30.524Z,2.30
2018-06-02T14:56:02.923Z,1.90
2018-06-02T14:58:35.947Z,2.20
2018-06-02T15:01:09.100Z,2.20
2018-06-02T15:03:41.602Z,1.97
2018-06-02T15:06:14.599Z,1.83
2018-06-02T15:08:47.860Z,2.23
2018-06-02T15:11:20.767Z,2.20
2018-06-02T15:13:56.173Z,2.00
2018-06-02T15:16:27.976Z,2.37
2018-06-02T15:19:00.860Z,1.97
2018-06-02T15:21:36.150Z,1.60
2018-06-02T15:24:09.528Z,2.20
2018-06-02T15:29:18.199Z,2.10
2018-06-02T15:31:50.088Z,1.90
2018-06-02T15:34:22.244Z,2.63
2018-06-02T15:39:31.058Z,2.70
2018-06-02T15:42:03.963Z,2.83
2018-06-02T15:44:36.073Z,2.90
2018-06-02T15:47:08.307Z,2.40
2018-06-02T15:49:41.913Z,2.50
2018-06-02T15:52:14.442Z,2.33
2018-06-02T15:54:47.543Z,2.23
2018-06-02T15:57:19.795Z,2.87
2018-06-02T15:59:53.683Z,2.20
2018-06-02T16:02:27.693Z,6.17
2018-06-02T16:04:59.893Z,2.40
2018-06-02T16:07:31.845Z,3.37
2018-06-02T16:10:04.406Z,3.60
2018-06-02T16:12:35.857Z,2.60
2018-06-02T16:15:08.818Z,8.97
2018-06-02T16:17:41.241Z,34.43
2018-06-02T16:20:13.223Z,12.43
2018-06-02T16:22:45.599Z,9.50
2018-06-02T16:25:18.572Z,2.83
2018-06-02T16:27:50.668Z,1.77
2018-06-02T16:30:22.657Z,6.00
2018-06-02T16:32:54.773Z,2.80
2018-06-02T16:35:27.115Z,3.83
2018-06-02T16:38:00.013Z,3.70
2018-06-02T16:40:31.746Z,9.83
2018-06-02T16:43:03.890Z,16.50
2018-06-02T16:45:37.573Z,8.70
2018-06-02T16:53:25.576Z,4.70
2018-06-02T16:55:58.645Z,4.50
2018-06-02T16:58:31.314Z,10.07
2018-06-02T17:01:05.042Z,6.20
2018-06-02T17:03:37.736Z,3.63
2018-06-02T17:06:10.809Z,4.07
2018-06-02T17:08:43.083Z,3.80
2018-06-02T17:11:15.587Z,3.10
2018-06-02T17:13:47.681Z,3.13
2018-06-02T17:16:20.443Z,3.10
2018-06-02T17:21:29.825Z,8.13
2018-06-02T17:24:03.204Z,13.60
2018-06-02T17:26:35.536Z,41.87
2018-06-02T17:29:08.264Z,24.80
2018-06-02T17:31:40.912Z,49.77
2018-06-02T17:34:14.283Z,9.00
2018-06-02T17:36:47.514Z,6.57
2018-06-02T17:39:20.329Z,3.37
2018-06-02T17:44:29.682Z,2.50
2018-06-02T17:47:02.034Z,2.20
2018-06-02T17:49:34.343Z,2.57
2018-06-02T17:52:06.899Z,2.50
2018-06-02T17:54:39.726Z,2.67
2018-06-02T17:57:13.124Z,2.97
2018-06-02T17:59:46.934Z,2.50
2018-06-02T18:02:21.506Z,2.80
2018-06-02T18:07:30.671Z,2.90
2018-06-02T18:10:03.062Z,2.63
2018-06-02T18:12:32.165Z,2.70
2018-06-02T18:15:02.136Z,2.67
2018-06-02T18:17:31.540Z,3.20
2018-06-02T18:20:00.640Z,3.33
2018-06-02T18:22:29.875Z,4.77
2018-06-02T18:24:59.251Z,6.43
2018-06-02T18:27:28.329Z,7.10
2018-06-02T18:29:57.409Z,9.70
2018-06-02T18:32:26.644Z,16.17
2018-06-02T18:34:55.690Z,15.50
2018-06-02T18:37:24.798Z,17.77
2018-06-02T18:39:54.007Z,16.87
2018-06-02T18:42:23.071Z,6.60
2018-06-02T18:47:27.950Z,3.42
2018-06-02T18:49:57.015Z,3.87
2018-06-02T18:52:26.217Z,3.40
2018-06-02T18:57:31.092Z,5.35
2018-06-02T19:00:00.355Z,6.25
2018-06-02T19:02:29.463Z,4.30
2018-06-02T19:04:59.431Z,5.00
2018-06-02T19:07:28.550Z,3.97
2018-06-02T19:09:58.528Z,3.87
2018-06-02T19:12:27.598Z,5.10
2018-06-02T19:14:56.646Z,3.50
2018-06-02T19:17:25.708Z,3.80
2018-06-02T19:19:54.926Z,3.97
2018-06-02T19:22:24.029Z,3.57
2018-06-02T19:24:53.120Z,3.07
2018-06-02T19:27:22.866Z,3.57
2018-06-02T19:29:51.975Z,4.67
2018-06-02T19:34:56.789Z,3.78
2018-06-02T19:37:25.859Z,4.57
2018-06-02T19:39:54.926Z,4.47
2018-06-02T19:42:24.177Z,4.03
2018-06-02T19:44:53.234Z,4.00
2018-06-02T19:47:22.307Z,5.43
2018-06-02T19:49:51.375Z,4.03
2018-06-02T19:52:22.888Z,4.13
2018-06-02T19:54:52.173Z,5.90
2018-06-02T19:57:21.933Z,3.80
2018-06-02T19:59:51.013Z,4.87
2018-06-02T20:02:23.761Z,4.97
2018-06-02T20:04:54.616Z,4.70
2018-06-02T20:07:25.535Z,3.93
2018-06-02T20:09:56.237Z,5.30
2018-06-02T20:12:27.079Z,4.37
2018-06-02T20:17:36.708Z,4.72
2018-06-02T20:20:08.267Z,5.23
2018-06-02T20:22:41.268Z,5.67
2018-06-02T20:25:13.118Z,4.80
2018-06-02T20:27:45.714Z,5.07
2018-06-02T20:30:18.267Z,5.32
2018-06-02T20:32:52.180Z,4.93
2018-06-02T20:35:23.299Z,4.70
2018-06-02T20:37:54.757Z,5.13
2018-06-02T20:43:03.159Z,4.43
2018-06-02T20:48:13.025Z,5.40
2018-06-02T20:50:45.325Z,5.90
2018-06-02T20:55:53.888Z,5.03
2018-06-02T20:58:26.653Z,5.10
2018-06-02T21:03:34.784Z,5.50
2018-06-02T21:06:06.714Z,5.50
2018-06-02T21:08:37.383Z,5.40
2018-06-02T21:13:45.767Z,6.70
2018-06-02T21:16:17.417Z,5.63
2018-06-02T21:18:49.350Z,6.47
2018-06-02T21:21:22.336Z,9.93
2018-06-02T21:23:52.596Z,41.13
2018-06-02T21:28:58.448Z,6.70
2018-06-02T21:31:31.286Z,6.50
2018-06-02T21:34:02.362Z,7.13
2018-06-02T21:36:35.028Z,13.07
2018-06-02T21:39:07.203Z,7.40
2018-06-02T21:41:42.288Z,8.40
2018-06-02T21:44:13.527Z,6.30
2018-06-02T21:46:46.103Z,5.80
2018-06-02T21:49:18.582Z,5.20
2018-06-02T21:51:51.100Z,5.82
2018-06-02T21:54:22.353Z,5.63
2018-06-02T21:56:53.923Z,5.23
2018-06-02T21:59:26.677Z,5.00
2018-06-02T22:01:57.955Z,6.03
2018-06-02T22:04:29.641Z,5.77
2018-06-02T22:07:03.185Z,5.07
2018-06-02T22:12:12.445Z,4.72
2018-06-02T22:14:45.473Z,5.63
2018-06-02T22:17:17.506Z,4.90
2018-06-02T22:19:50.782Z,5.07
2018-06-02T22:22:22.052Z,5.12
2018-06-02T22:24:52.657Z,5.37
2018-06-02T22:27:25.096Z,6.47
2018-06-02T22:29:56.175Z,5.97
2018-06-02T22:32:27.944Z,5.50
2018-06-02T22:34:59.039Z,7.10
2018-06-02T22:40:06.102Z,5.60
2018-06-02T22:42:38.412Z,5.72
2018-06-02T22:45:11.022Z,5.03
2018-06-02T22:47:42.632Z,5.00
2018-06-02T22:50:14.847Z,5.60
2018-06-02T22:52:47.189Z,4.83
2018-06-02T22:57:55.346Z,5.10
2018-06-02T23:00:29.495Z,5.53
2018-06-02T23:05:39.002Z,5.45
2018-06-02T23:08:10.190Z,5.73
2018-06-02T23:10:41.108Z,5.60
2018-06-02T23:13:13.248Z,5.70
2018-06-02T23:15:45.661Z,4.87
2018-06-02T23:18:17.034Z,5.80
2018-06-02T23:20:48.892Z,4.90
2018-06-02T23:23:20.936Z,4.63
2018-06-02T23:25:53.622Z,5.03
2018-06-02T23:28:26.608Z,5.20
2018-06-02T23:30:56.827Z,6.80
2018-06-02T23:33:29.833Z,5.23
2018-06-02T23:36:02.286Z,5.10
2018-06-02T23:38:35.554Z,5.33
2018-06-02T23:41:07.701Z,5.80
2018-06-02T23:43:42.025Z,5.97
2018-06-02T23:46:14.510Z,6.63
2018-06-02T23:48:46.464Z,10.03
2018-06-02T23:51:19.109Z,6.10
2018-06-02T23:53:52.198Z,5.83
2018-06-02T23:56:24.852Z,6.40
2018-06-02T23:58:55.979Z,6.77
